sensor_id;sensor_type;location;lat;lon;timestamp;P1;durP1;ratioP1;P2;durP2;ratioP2
51686;SDS011;37774;52.192;4.584;2022-12-05T00:00:48;29.45;;;13.13;;
51686;SDS011;37774;52.192;4.584;2022-12-05T00:03:15;30.33;;;12.23;;
51686;SDS011;37774;52.192;4.584;2022-12-05T00:05:43;34.28;;;13.02;;
51686;SDS011;37774;52.192;4.584;2022-12-05T00:08:09;41.63;;;14.20;;
51686;SDS011;37774;52.192;4.584;2022-12-05T00:10:36;34.50;;;11.57;;
51686;SDS011;37774;52.192;4.584;2022-12-05T00:13:02;43.15;;;14.38;;
51686;SDS011;37774;52.192;4.584;2022-12-05T00:15:29;36.17;;;14.27;;
51686;SDS011;37774;52.192;4.584;2022-12-05T00:17:56;37.72;;;14.52;;
51686;SDS011;37774;52.192;4.584;2022-12-05T00:20:22;45.50;;;13.50;;
51686;SDS011;37774;52.192;4.584;2022-12-05T00:22:50;32.50;;;11.65;;
51686;SDS011;37774;52.192;4.584;2022-12-05T00:25:17;34.17;;;12.48;;
51686;SDS011;37774;52.192;4.584;2022-12-05T00:27:43;34.80;;;13.02;;
51686;SDS011;37774;52.192;4.584;2022-12-05T00:30:10;40.20;;;12.80;;
51686;SDS011;37774;52.192;4.584;2022-12-05T00:32:37;33.95;;;13.52;;
51686;SDS011;37774;52.192;4.584;2022-12-05T00:35:04;32.40;;;11.52;;
51686;SDS011;37774;52.192;4.584;2022-12-05T00:37:30;43.08;;;13.60;;
51686;SDS011;37774;52.192;4.584;2022-12-05T00:39:58;29.95;;;12.45;;
51686;SDS011;37774;52.192;4.584;2022-12-05T00:42:25;37.20;;;11.60;;
51686;SDS011;37774;52.192;4.584;2022-12-05T00:44:51;38.85;;;14.13;;
51686;SDS011;37774;52.192;4.584;2022-12-05T00:47:18;41.58;;;14.35;;
51686;SDS011;37774;52.192;4.584;2022-12-05T00:49:44;31.45;;;13.32;;
51686;SDS011;37774;52.192;4.584;2022-12-05T00:52:11;36.03;;;12.32;;
51686;SDS011;37774;52.192;4.584;2022-12-05T00:54:37;35.97;;;12.88;;
51686;SDS011;37774;52.192;4.584;2022-12-05T00:57:05;40.55;;;15.10;;
51686;SDS011;37774;52.192;4.584;2022-12-05T00:59:32;41.70;;;13.07;;
51686;SDS011;37774;52.192;4.584;2022-12-05T01:01:58;35.92;;;13.20;;
51686;SDS011;37774;52.192;4.584;2022-12-05T01:04:25;38.35;;;14.82;;
51686;SDS011;37774;52.192;4.584;2022-12-05T01:06:52;34.92;;;12.63;;
51686;SDS011;37774;52.192;4.584;2022-12-05T01:09:19;40.50;;;14.77;;
51686;SDS011;37774;52.192;4.584;2022-12-05T01:11:46;30.38;;;11.57;;
51686;SDS011;37774;52.192;4.584;2022-12-05T01:14:15;39.95;;;14.93;;
51686;SDS011;37774;52.192;4.584;2022-12-05T01:16:42;43.65;;;14.88;;
51686;SDS011;37774;52.192;4.584;2022-12-05T01:19:10;26.13;;;12.85;;
51686;SDS011;37774;52.192;4.584;2022-12-05T01:21:37;33.88;;;13.63;;
51686;SDS011;37774;52.192;4.584;2022-12-05T01:24:03;39.45;;;13.15;;
51686;SDS011;37774;52.192;4.584;2022-12-05T01:26:30;36.45;;;13.23;;
51686;SDS011;37774;52.192;4.584;2022-12-05T01:28:57;39.00;;;15.18;;
51686;SDS011;37774;52.192;4.584;2022-12-05T01:31:26;41.47;;;13.43;;
51686;SDS011;37774;52.192;4.584;2022-12-05T01:33:54;41.60;;;15.70;;
51686;SDS011;37774;52.192;4.584;2022-12-05T01:36:21;29.25;;;11.73;;
51686;SDS011;37774;52.192;4.584;2022-12-05T01:38:48;31.98;;;10.73;;
51686;SDS011;37774;52.192;4.584;2022-12-05T01:41:15;46.25;;;15.05;;
51686;SDS011;37774;52.192;4.584;2022-12-05T01:43:52;46.38;;;15.90;;
51686;SDS011;37774;52.192;4.584;2022-12-05T01:46:19;31.20;;;12.48;;
51686;SDS011;37774;52.192;4.584;2022-12-05T01:48:48;37.20;;;11.50;;
51686;SDS011;37774;52.192;4.584;2022-12-05T01:51:15;39.63;;;16.00;;
51686;SDS011;37774;52.192;4.584;2022-12-05T01:53:42;40.38;;;11.77;;
51686;SDS011;37774;52.192;4.584;2022-12-05T01:56:09;45.22;;;12.43;;
51686;SDS011;37774;52.192;4.584;2022-12-05T01:58:36;44.20;;;15.98;;
51686;SDS011;37774;52.192;4.584;2022-12-05T02:01:03;37.88;;;12.57;;
51686;SDS011;37774;52.192;4.584;2022-12-05T02:03:30;31.58;;;12.43;;
51686;SDS011;37774;52.192;4.584;2022-12-05T02:05:58;36.85;;;14.98;;
51686;SDS011;37774;52.192;4.584;2022-12-05T02:08:26;32.83;;;12.55;;
51686;SDS011;37774;52.192;4.584;2022-12-05T02:10:53;37.70;;;13.70;;
51686;SDS011;37774;52.192;4.584;2022-12-05T02:16:07;32.90;;;13.50;;
51686;SDS011;37774;52.192;4.584;2022-12-05T02:18:42;39.60;;;12.50;;
51686;SDS011;37774;52.192;4.584;2022-12-05T02:21:34;40.42;;;12.95;;
51686;SDS011;37774;52.192;4.584;2022-12-05T02:24:14;48.45;;;13.45;;
51686;SDS011;37774;52.192;4.584;2022-12-05T02:26:49;40.63;;;14.05;;
51686;SDS011;37774;52.192;4.584;2022-12-05T02:32:21;35.00;;;12.90;;
51686;SDS011;37774;52.192;4.584;2022-12-05T02:34:51;25.25;;;10.18;;
51686;SDS011;37774;52.192;4.584;2022-12-05T02:37:22;52.67;;;13.85;;
51686;SDS011;37774;52.192;4.584;2022-12-05T02:39:53;33.33;;;12.20;;
51686;SDS011;37774;52.192;4.584;2022-12-05T02:42:23;34.47;;;12.25;;
51686;SDS011;37774;52.192;4.584;2022-12-05T02:44:54;34.58;;;13.40;;
51686;SDS011;37774;52.192;4.584;2022-12-05T02:47:25;41.92;;;13.82;;
51686;SDS011;37774;52.192;4.584;2022-12-05T02:49:52;24.85;;;11.32;;
51686;SDS011;37774;52.192;4.584;2022-12-05T02:52:19;41.40;;;13.68;;
51686;SDS011;37774;52.192;4.584;2022-12-05T02:54:47;35.17;;;12.18;;
51686;SDS011;37774;52.192;4.584;2022-12-05T02:57:14;37.78;;;12.57;;
51686;SDS011;37774;52.192;4.584;2022-12-05T02:59:42;38.92;;;11.48;;
51686;SDS011;37774;52.192;4.584;2022-12-05T03:02:19;33.58;;;14.85;;
51686;SDS011;37774;52.192;4.584;2022-12-05T03:04:48;34.67;;;10.57;;
51686;SDS011;37774;52.192;4.584;2022-12-05T03:07:15;34.25;;;13.05;;
51686;SDS011;37774;52.192;4.584;2022-12-05T03:09:44;31.13;;;12.15;;
51686;SDS011;37774;52.192;4.584;2022-12-05T03:12:13;32.47;;;12.18;;
51686;SDS011;37774;52.192;4.584;2022-12-05T03:14:42;31.23;;;12.82;;
51686;SDS011;37774;52.192;4.584;2022-12-05T03:17:11;31.58;;;11.98;;
51686;SDS011;37774;52.192;4.584;2022-12-05T03:19:41;30.17;;;10.85;;
51686;SDS011;37774;52.192;4.584;2022-12-05T03:22:13;36.35;;;11.77;;
51686;SDS011;37774;52.192;4.584;2022-12-05T03:24:42;35.20;;;13.07;;
51686;SDS011;37774;52.192;4.584;2022-12-05T03:27:10;36.70;;;11.18;;
51686;SDS011;37774;52.192;4.584;2022-12-05T03:29:41;24.50;;;11.05;;
51686;SDS011;37774;52.192;4.584;2022-12-05T03:32:10;36.75;;;13.18;;
51686;SDS011;37774;52.192;4.584;2022-12-05T03:34:48;38.83;;;11.38;;
51686;SDS011;37774;52.192;4.584;2022-12-05T03:37:19;39.42;;;11.38;;
51686;SDS011;37774;52.192;4.584;2022-12-05T03:39:47;34.13;;;11.80;;
51686;SDS011;37774;52.192;4.584;2022-12-05T03:42:15;36.08;;;11.50;;
51686;SDS011;37774;52.192;4.584;2022-12-05T03:44:44;35.63;;;13.73;;
51686;SDS011;37774;52.192;4.584;2022-12-05T03:47:14;31.58;;;11.15;;
51686;SDS011;37774;52.192;4.584;2022-12-05T03:49:43;27.30;;;11.77;;
51686;SDS011;37774;52.192;4.584;2022-12-05T03:52:13;34.42;;;11.40;;
51686;SDS011;37774;52.192;4.584;2022-12-05T03:54:45;32.15;;;11.15;;
51686;SDS011;37774;52.192;4.584;2022-12-05T03:57:14;31.90;;;11.40;;
51686;SDS011;37774;52.192;4.584;2022-12-05T03:59:43;33.38;;;10.82;;
51686;SDS011;37774;52.192;4.584;2022-12-05T04:02:12;24.92;;;9.32;;
51686;SDS011;37774;52.192;4.584;2022-12-05T04:04:41;32.88;;;12.38;;
51686;SDS011;37774;52.192;4.584;2022-12-05T04:07:10;25.77;;;10.80;;
51686;SDS011;37774;52.192;4.584;2022-12-05T04:09:39;33.17;;;11.50;;
51686;SDS011;37774;52.192;4.584;2022-12-05T04:12:10;29.80;;;11.77;;
51686;SDS011;37774;52.192;4.584;2022-12-05T04:14:40;28.52;;;10.93;;
51686;SDS011;37774;52.192;4.584;2022-12-05T04:17:09;31.15;;;12.35;;
51686;SDS011;37774;52.192;4.584;2022-12-05T04:19:38;35.97;;;12.55;;
51686;SDS011;37774;52.192;4.584;2022-12-05T04:22:23;33.80;;;11.45;;
51686;SDS011;37774;52.192;4.584;2022-12-05T04:24:50;36.95;;;12.68;;
51686;SDS011;37774;52.192;4.584;2022-12-05T04:27:37;37.70;;;13.73;;
51686;SDS011;37774;52.192;4.584;2022-12-05T04:30:06;33.40;;;12.65;;
51686;SDS011;37774;52.192;4.584;2022-12-05T04:32:35;32.08;;;12.88;;
51686;SDS011;37774;52.192;4.584;2022-12-05T04:35:04;29.35;;;11.07;;
51686;SDS011;37774;52.192;4.584;2022-12-05T04:37:32;30.02;;;12.02;;
51686;SDS011;37774;52.192;4.584;2022-12-05T04:40:01;31.80;;;12.32;;
51686;SDS011;37774;52.192;4.584;2022-12-05T04:42:30;28.60;;;10.85;;
51686;SDS011;37774;52.192;4.584;2022-12-05T04:45:01;43.75;;;12.02;;
51686;SDS011;37774;52.192;4.584;2022-12-05T04:47:28;29.08;;;11.38;;
51686;SDS011;37774;52.192;4.584;2022-12-05T04:49:56;30.55;;;11.48;;
51686;SDS011;37774;52.192;4.584;2022-12-05T04:52:24;37.10;;;12.07;;
51686;SDS011;37774;52.192;4.584;2022-12-05T04:54:54;29.48;;;11.00;;
51686;SDS011;37774;52.192;4.584;2022-12-05T04:57:23;33.17;;;13.00;;
51686;SDS011;37774;52.192;4.584;2022-12-05T04:59:51;32.55;;;11.23;;
51686;SDS011;37774;52.192;4.584;2022-12-05T05:02:19;34.33;;;11.48;;
51686;SDS011;37774;52.192;4.584;2022-12-05T05:04:47;34.17;;;12.48;;
51686;SDS011;37774;52.192;4.584;2022-12-05T05:07:15;32.22;;;12.30;;
51686;SDS011;37774;52.192;4.584;2022-12-05T05:09:42;29.13;;;12.10;;
51686;SDS011;37774;52.192;4.584;2022-12-05T05:12:09;31.35;;;11.48;;
51686;SDS011;37774;52.192;4.584;2022-12-05T05:14:36;38.08;;;13.23;;
51686;SDS011;37774;52.192;4.584;2022-12-05T05:17:02;30.55;;;12.27;;
51686;SDS011;37774;52.192;4.584;2022-12-05T05:19:30;36.28;;;11.93;;
51686;SDS011;37774;52.192;4.584;2022-12-05T05:21:57;29.92;;;11.40;;
51686;SDS011;37774;52.192;4.584;2022-12-05T05:24:24;27.08;;;11.63;;
51686;SDS011;37774;52.192;4.584;2022-12-05T05:26:51;40.35;;;14.07;;
51686;SDS011;37774;52.192;4.584;2022-12-05T05:29:17;35.53;;;13.07;;
51686;SDS011;37774;52.192;4.584;2022-12-05T05:31:44;48.20;;;14.82;;
51686;SDS011;37774;52.192;4.584;2022-12-05T05:34:11;35.80;;;13.38;;
51686;SDS011;37774;52.192;4.584;2022-12-05T05:36:41;42.30;;;13.73;;
51686;SDS011;37774;52.192;4.584;2022-12-05T05:39:10;37.67;;;13.80;;
51686;SDS011;37774;52.192;4.584;2022-12-05T05:41:37;39.38;;;13.40;;
51686;SDS011;37774;52.192;4.584;2022-12-05T05:44:03;40.95;;;14.30;;
51686;SDS011;37774;52.192;4.584;2022-12-05T05:46:31;36.20;;;12.93;;
51686;SDS011;37774;52.192;4.584;2022-12-05T05:48:58;35.50;;;13.50;;
51686;SDS011;37774;52.192;4.584;2022-12-05T05:51:25;35.00;;;12.52;;
51686;SDS011;37774;52.192;4.584;2022-12-05T05:53:55;36.83;;;13.60;;
51686;SDS011;37774;52.192;4.584;2022-12-05T05:56:23;37.97;;;11.77;;
51686;SDS011;37774;52.192;4.584;2022-12-05T05:58:53;39.85;;;12.98;;
51686;SDS011;37774;52.192;4.584;2022-12-05T06:01:20;27.58;;;12.23;;
51686;SDS011;37774;52.192;4.584;2022-12-05T06:03:46;34.38;;;12.65;;
51686;SDS011;37774;52.192;4.584;2022-12-05T06:06:15;39.70;;;12.55;;
51686;SDS011;37774;52.192;4.584;2022-12-05T06:08:42;33.15;;;12.60;;
51686;SDS011;37774;52.192;4.584;2022-12-05T06:11:11;35.22;;;12.95;;
51686;SDS011;37774;52.192;4.584;2022-12-05T06:13:38;37.05;;;14.18;;
51686;SDS011;37774;52.192;4.584;2022-12-05T06:16:05;30.30;;;14.45;;
51686;SDS011;37774;52.192;4.584;2022-12-05T06:18:32;38.70;;;11.60;;
51686;SDS011;37774;52.192;4.584;2022-12-05T06:20:58;22.15;;;11.27;;
51686;SDS011;37774;52.192;4.584;2022-12-05T06:23:25;34.80;;;12.38;;
51686;SDS011;37774;52.192;4.584;2022-12-05T06:25:52;37.22;;;13.02;;
51686;SDS011;37774;52.192;4.584;2022-12-05T06:28:21;32.35;;;12.02;;
51686;SDS011;37774;52.192;4.584;2022-12-05T06:30:48;32.35;;;12.45;;
51686;SDS011;37774;52.192;4.584;2022-12-05T06:33:14;36.38;;;12.07;;
51686;SDS011;37774;52.192;4.584;2022-12-05T06:35:41;31.10;;;10.40;;
51686;SDS011;37774;52.192;4.584;2022-12-05T06:38:08;38.95;;;14.07;;
51686;SDS011;37774;52.192;4.584;2022-12-05T06:40:38;27.33;;;10.75;;
51686;SDS011;37774;52.192;4.584;2022-12-05T06:43:05;26.65;;;10.48;;
51686;SDS011;37774;52.192;4.584;2022-12-05T06:45:33;29.42;;;11.52;;
51686;SDS011;37774;52.192;4.584;2022-12-05T06:47:59;32.60;;;9.88;;
51686;SDS011;37774;52.192;4.584;2022-12-05T06:50:26;27.08;;;11.13;;
51686;SDS011;37774;52.192;4.584;2022-12-05T06:52:52;25.95;;;9.80;;
51686;SDS011;37774;52.192;4.584;2022-12-05T06:55:19;29.55;;;10.98;;
51686;SDS011;37774;52.192;4.584;2022-12-05T06:57:45;23.05;;;9.95;;
51686;SDS011;37774;52.192;4.584;2022-12-05T07:00:12;36.47;;;10.35;;
51686;SDS011;37774;52.192;4.584;2022-12-05T07:02:58;24.98;;;10.20;;
51686;SDS011;37774;52.192;4.584;2022-12-05T07:05:24;30.58;;;10.68;;
51686;SDS011;37774;52.192;4.584;2022-12-05T07:07:51;19.45;;;8.57;;
51686;SDS011;37774;52.192;4.584;2022-12-05T07:10:17;23.15;;;8.35;;
51686;SDS011;37774;52.192;4.584;2022-12-05T07:12:44;22.83;;;9.82;;
51686;SDS011;37774;52.192;4.584;2022-12-05T07:15:11;19.23;;;8.63;;
51686;SDS011;37774;52.192;4.584;2022-12-05T07:17:37;20.00;;;8.10;;
51686;SDS011;37774;52.192;4.584;2022-12-05T07:20:07;16.88;;;7.32;;
51686;SDS011;37774;52.192;4.584;2022-12-05T07:22:35;15.98;;;7.80;;
51686;SDS011;37774;52.192;4.584;2022-12-05T07:25:02;19.45;;;8.00;;
51686;SDS011;37774;52.192;4.584;2022-12-05T07:27:31;20.02;;;8.45;;
51686;SDS011;37774;52.192;4.584;2022-12-05T07:30:01;20.10;;;8.38;;
51686;SDS011;37774;52.192;4.584;2022-12-05T07:32:39;14.98;;;7.50;;
51686;SDS011;37774;52.192;4.584;2022-12-05T07:35:13;18.30;;;8.38;;
51686;SDS011;37774;52.192;4.584;2022-12-05T07:40:26;19.88;;;7.13;;
51686;SDS011;37774;52.192;4.584;2022-12-05T07:42:56;21.75;;;7.47;;
51686;SDS011;37774;52.192;4.584;2022-12-05T07:45:23;14.35;;;6.97;;
51686;SDS011;37774;52.192;4.584;2022-12-05T07:47:52;13.35;;;6.00;;
51686;SDS011;37774;52.192;4.584;2022-12-05T07:50:22;14.45;;;7.18;;
51686;SDS011;37774;52.192;4.584;2022-12-05T07:52:50;15.88;;;6.70;;
51686;SDS011;37774;52.192;4.584;2022-12-05T07:55:17;15.63;;;7.13;;
51686;SDS011;37774;52.192;4.584;2022-12-05T07:57:44;17.13;;;7.72;;
51686;SDS011;37774;52.192;4.584;2022-12-05T08:00:11;16.30;;;7.88;;
51686;SDS011;37774;52.192;4.584;2022-12-05T08:02:43;18.33;;;7.30;;
51686;SDS011;37774;52.192;4.584;2022-12-05T08:05:12;17.58;;;7.28;;
51686;SDS011;37774;52.192;4.584;2022-12-05T08:07:40;17.92;;;8.38;;
51686;SDS011;37774;52.192;4.584;2022-12-05T08:10:07;17.50;;;7.05;;
51686;SDS011;37774;52.192;4.584;2022-12-05T08:12:34;13.07;;;5.68;;
51686;SDS011;37774;52.192;4.584;2022-12-05T08:15:02;12.68;;;6.80;;
51686;SDS011;37774;52.192;4.584;2022-12-05T08:17:28;11.52;;;5.97;;
51686;SDS011;37774;52.192;4.584;2022-12-05T08:19:56;19.25;;;6.03;;
51686;SDS011;37774;52.192;4.584;2022-12-05T08:22:22;11.13;;;6.07;;
51686;SDS011;37774;52.192;4.584;2022-12-05T08:24:51;11.75;;;5.53;;
51686;SDS011;37774;52.192;4.584;2022-12-05T08:27:17;10.88;;;5.38;;
51686;SDS011;37774;52.192;4.584;2022-12-05T08:29:44;10.30;;;5.05;;
51686;SDS011;37774;52.192;4.584;2022-12-05T08:32:10;13.02;;;5.78;;
51686;SDS011;37774;52.192;4.584;2022-12-05T08:34:37;11.32;;;4.75;;
51686;SDS011;37774;52.192;4.584;2022-12-05T08:37:07;13.07;;;5.82;;
51686;SDS011;37774;52.192;4.584;2022-12-05T08:39:33;11.00;;;5.38;;
51686;SDS011;37774;52.192;4.584;2022-12-05T08:42:02;9.82;;;5.50;;
51686;SDS011;37774;52.192;4.584;2022-12-05T08:44:28;18.17;;;4.97;;
51686;SDS011;37774;52.192;4.584;2022-12-05T08:46:55;9.50;;;4.00;;
51686;SDS011;37774;52.192;4.584;2022-12-05T08:49:22;12.23;;;4.68;;
51686;SDS011;37774;52.192;4.584;2022-12-05T08:51:48;11.38;;;5.35;;
51686;SDS011;37774;52.192;4.584;2022-12-05T08:54:15;14.52;;;5.30;;
51686;SDS011;37774;52.192;4.584;2022-12-05T08:56:41;6.00;;;3.92;;
51686;SDS011;37774;52.192;4.584;2022-12-05T08:59:09;11.60;;;4.95;;
51686;SDS011;37774;52.192;4.584;2022-12-05T09:01:36;11.57;;;4.88;;
51686;SDS011;37774;52.192;4.584;2022-12-05T09:04:03;10.82;;;4.97;;
51686;SDS011;37774;52.192;4.584;2022-12-05T09:06:30;12.52;;;4.63;;
51686;SDS011;37774;52.192;4.584;2022-12-05T09:08:58;11.13;;;5.22;;
51686;SDS011;37774;52.192;4.584;2022-12-05T09:11:25;9.60;;;4.63;;
51686;SDS011;37774;52.192;4.584;2022-12-05T09:13:53;12.18;;;5.50;;
51686;SDS011;37774;52.192;4.584;2022-12-05T09:16:23;11.88;;;5.13;;
51686;SDS011;37774;52.192;4.584;2022-12-05T09:18:49;11.00;;;4.78;;
51686;SDS011;37774;52.192;4.584;2022-12-05T09:21:17;16.60;;;6.22;;
51686;SDS011;37774;52.192;4.584;2022-12-05T09:23:44;20.25;;;6.03;;
51686;SDS011;37774;52.192;4.584;2022-12-05T09:26:11;10.40;;;5.20;;
51686;SDS011;37774;52.192;4.584;2022-12-05T09:28:38;10.70;;;5.40;;
51686;SDS011;37774;52.192;4.584;2022-12-05T09:31:06;9.90;;;5.35;;
51686;SDS011;37774;52.192;4.584;2022-12-05T09:33:35;11.93;;;5.57;;
51686;SDS011;37774;52.192;4.584;2022-12-05T09:36:02;10.07;;;4.88;;
51686;SDS011;37774;52.192;4.584;2022-12-05T09:38:28;9.50;;;5.25;;
51686;SDS011;37774;52.192;4.584;2022-12-05T09:40:59;10.27;;;4.90;;
51686;SDS011;37774;52.192;4.584;2022-12-05T09:43:29;8.70;;;4.10;;
51686;SDS011;37774;52.192;4.584;2022-12-05T09:45:59;13.85;;;6.57;;
51686;SDS011;37774;52.192;4.584;2022-12-05T09:48:27;7.97;;;4.43;;
51686;SDS011;37774;52.192;4.584;2022-12-05T09:50:56;12.07;;;5.30;;
51686;SDS011;37774;52.192;4.584;2022-12-05T09:53:24;16.92;;;5.95;;
51686;SDS011;37774;52.192;4.584;2022-12-05T09:55:54;13.55;;;5.68;;
51686;SDS011;37774;52.192;4.584;2022-12-05T09:58:24;13.95;;;6.55;;
51686;SDS011;37774;52.192;4.584;2022-12-05T10:00:53;9.55;;;4.97;;
51686;SDS011;37774;52.192;4.584;2022-12-05T10:03:23;10.13;;;5.22;;
51686;SDS011;37774;52.192;4.584;2022-12-05T10:05:52;12.13;;;5.88;;
51686;SDS011;37774;52.192;4.584;2022-12-05T10:08:25;11.77;;;5.00;;
51686;SDS011;37774;52.192;4.584;2022-12-05T10:10:56;15.32;;;5.95;;
51686;SDS011;37774;52.192;4.584;2022-12-05T10:13:28;15.35;;;6.15;;
51686;SDS011;37774;52.192;4.584;2022-12-05T10:15:58;11.20;;;5.22;;
51686;SDS011;37774;52.192;4.584;2022-12-05T10:18:27;12.18;;;5.40;;
51686;SDS011;37774;52.192;4.584;2022-12-05T10:20:56;10.02;;;5.07;;
51686;SDS011;37774;52.192;4.584;2022-12-05T10:23:25;15.13;;;5.72;;
51686;SDS011;37774;52.192;4.584;2022-12-05T10:25:54;16.25;;;4.97;;
51686;SDS011;37774;52.192;4.584;2022-12-05T10:28:25;9.75;;;5.57;;
51686;SDS011;37774;52.192;4.584;2022-12-05T10:30:52;9.70;;;5.38;;
51686;SDS011;37774;52.192;4.584;2022-12-05T10:33:21;14.30;;;5.53;;
51686;SDS011;37774;52.192;4.584;2022-12-05T10:35:49;8.35;;;5.03;;
51686;SDS011;37774;52.192;4.584;2022-12-05T10:38:21;12.82;;;6.13;;
51686;SDS011;37774;52.192;4.584;2022-12-05T10:40:49;11.15;;;5.03;;
51686;SDS011;37774;52.192;4.584;2022-12-05T10:43:20;11.48;;;5.22;;
51686;SDS011;37774;52.192;4.584;2022-12-05T10:45:51;13.07;;;6.05;;
51686;SDS011;37774;52.192;4.584;2022-12-05T10:48:19;12.57;;;5.72;;
51686;SDS011;37774;52.192;4.584;2022-12-05T10:50:46;13.88;;;5.72;;
51686;SDS011;37774;52.192;4.584;2022-12-05T10:53:15;20.30;;;5.80;;
51686;SDS011;37774;52.192;4.584;2022-12-05T10:55:43;17.00;;;6.10;;
51686;SDS011;37774;52.192;4.584;2022-12-05T10:58:13;10.43;;;5.25;;
51686;SDS011;37774;52.192;4.584;2022-12-05T11:00:40;19.48;;;5.75;;
51686;SDS011;37774;52.192;4.584;2022-12-05T11:03:20;10.38;;;4.88;;
51686;SDS011;37774;52.192;4.584;2022-12-05T11:05:48;11.38;;;4.50;;
51686;SDS011;37774;52.192;4.584;2022-12-05T11:08:20;15.52;;;5.38;;
51686;SDS011;37774;52.192;4.584;2022-12-05T11:10:47;14.48;;;5.65;;
51686;SDS011;37774;52.192;4.584;2022-12-05T11:13:16;11.50;;;5.70;;
51686;SDS011;37774;52.192;4.584;2022-12-05T11:15:48;11.70;;;4.45;;
51686;SDS011;37774;52.192;4.584;2022-12-05T11:18:23;12.80;;;5.18;;
51686;SDS011;37774;52.192;4.584;2022-12-05T11:20:51;12.30;;;3.95;;
51686;SDS011;37774;52.192;4.584;2022-12-05T11:23:21;9.18;;;4.88;;
51686;SDS011;37774;52.192;4.584;2022-12-05T11:25:48;9.30;;;5.05;;
51686;SDS011;37774;52.192;4.584;2022-12-05T11:28:24;7.57;;;4.03;;
51686;SDS011;37774;52.192;4.584;2022-12-05T11:30:55;12.50;;;4.85;;
51686;SDS011;37774;52.192;4.584;2022-12-05T11:33:22;7.22;;;4.03;;
51686;SDS011;37774;52.192;4.584;2022-12-05T11:35:49;13.15;;;5.85;;
51686;SDS011;37774;52.192;4.584;2022-12-05T11:38:17;12.55;;;4.13;;
51686;SDS011;37774;52.192;4.584;2022-12-05T11:40:46;14.00;;;4.93;;
51686;SDS011;37774;52.192;4.584;2022-12-05T11:43:23;9.27;;;4.10;;
51686;SDS011;37774;52.192;4.584;2022-12-05T11:45:58;9.13;;;4.60;;
51686;SDS011;37774;52.192;4.584;2022-12-05T11:48:36;14.90;;;5.47;;
51686;SDS011;37774;52.192;4.584;2022-12-05T11:51:18;16.63;;;5.70;;
51686;SDS011;37774;52.192;4.584;2022-12-05T11:53:59;17.58;;;4.80;;
51686;SDS011;37774;52.192;4.584;2022-12-05T11:56:33;17.50;;;5.40;;
51686;SDS011;37774;52.192;4.584;2022-12-05T11:59:15;13.25;;;6.20;;
51686;SDS011;37774;52.192;4.584;2022-12-05T12:01:50;15.13;;;5.43;;
51686;SDS011;37774;52.192;4.584;2022-12-05T12:04:28;15.05;;;5.93;;
51686;SDS011;37774;52.192;4.584;2022-12-05T12:07:00;23.13;;;7.35;;
51686;SDS011;37774;52.192;4.584;2022-12-05T12:09:32;21.48;;;5.10;;
51686;SDS011;37774;52.192;4.584;2022-12-05T12:12:01;13.55;;;4.93;;
51686;SDS011;37774;52.192;4.584;2022-12-05T12:14:33;14.32;;;5.28;;
51686;SDS011;37774;52.192;4.584;2022-12-05T12:17:06;13.48;;;4.53;;
51686;SDS011;37774;52.192;4.584;2022-12-05T12:19:52;9.85;;;5.03;;
51686;SDS011;37774;52.192;4.584;2022-12-05T12:22:35;14.38;;;5.00;;
51686;SDS011;37774;52.192;4.584;2022-12-05T12:25:09;9.52;;;4.18;;
51686;SDS011;37774;52.192;4.584;2022-12-05T12:27:45;10.18;;;4.45;;
51686;SDS011;37774;52.192;4.584;2022-12-05T12:30:16;16.15;;;4.82;;
51686;SDS011;37774;52.192;4.584;2022-12-05T12:32:49;28.27;;;10.05;;
51686;SDS011;37774;52.192;4.584;2022-12-05T12:35:26;15.77;;;6.85;;
51686;SDS011;37774;52.192;4.584;2022-12-05T12:37:57;23.13;;;7.82;;
51686;SDS011;37774;52.192;4.584;2022-12-05T12:40:29;25.55;;;9.07;;
51686;SDS011;37774;52.192;4.584;2022-12-05T12:43:02;29.33;;;9.93;;
51686;SDS011;37774;52.192;4.584;2022-12-05T12:45:39;29.95;;;11.20;;
51686;SDS011;37774;52.192;4.584;2022-12-05T12:48:16;33.28;;;12.88;;
51686;SDS011;37774;52.192;4.584;2022-12-05T12:50:50;28.98;;;12.75;;
51686;SDS011;37774;52.192;4.584;2022-12-05T12:53:22;30.92;;;13.32;;
51686;SDS011;37774;52.192;4.584;2022-12-05T12:55:55;34.67;;;13.57;;
51686;SDS011;37774;52.192;4.584;2022-12-05T12:58:30;30.70;;;13.07;;
51686;SDS011;37774;52.192;4.584;2022-12-05T13:01:03;28.42;;;11.00;;
51686;SDS011;37774;52.192;4.584;2022-12-05T13:03:36;27.83;;;11.38;;
51686;SDS011;37774;52.192;4.584;2022-12-05T13:06:06;23.15;;;9.38;;
51686;SDS011;37774;52.192;4.584;2022-12-05T13:08:37;29.02;;;10.63;;
51686;SDS011;37774;52.192;4.584;2022-12-05T13:11:07;22.70;;;9.93;;
51686;SDS011;37774;52.192;4.584;2022-12-05T13:13:37;31.05;;;12.30;;
51686;SDS011;37774;52.192;4.584;2022-12-05T13:16:05;28.52;;;12.45;;
51686;SDS011;37774;52.192;4.584;2022-12-05T13:18:32;30.38;;;13.18;;
51686;SDS011;37774;52.192;4.584;2022-12-05T13:21:01;30.63;;;12.50;;
51686;SDS011;37774;52.192;4.584;2022-12-05T13:23:29;36.97;;;11.80;;
51686;SDS011;37774;52.192;4.584;2022-12-05T13:25:57;34.05;;;10.95;;
51686;SDS011;37774;52.192;4.584;2022-12-05T13:28:26;33.17;;;10.93;;
51686;SDS011;37774;52.192;4.584;2022-12-05T13:30:53;16.67;;;8.13;;
51686;SDS011;37774;52.192;4.584;2022-12-05T13:33:25;21.13;;;8.30;;
51686;SDS011;37774;52.192;4.584;2022-12-05T13:35:54;15.68;;;6.13;;
51686;SDS011;37774;52.192;4.584;2022-12-05T13:38:42;15.98;;;6.82;;
51686;SDS011;37774;52.192;4.584;2022-12-05T13:41:37;17.92;;;5.57;;
51686;SDS011;37774;52.192;4.584;2022-12-05T13:44:25;16.08;;;5.50;;
51686;SDS011;37774;52.192;4.584;2022-12-05T13:46:53;16.27;;;6.03;;
51686;SDS011;37774;52.192;4.584;2022-12-05T13:49:23;13.57;;;5.32;;
51686;SDS011;37774;52.192;4.584;2022-12-05T13:51:53;15.02;;;6.03;;
51686;SDS011;37774;52.192;4.584;2022-12-05T13:54:21;10.52;;;5.03;;
51686;SDS011;37774;52.192;4.584;2022-12-05T13:56:49;11.88;;;5.50;;
51686;SDS011;37774;52.192;4.584;2022-12-05T14:02:01;13.02;;;4.90;;
51686;SDS011;37774;52.192;4.584;2022-12-05T14:07:10;15.98;;;5.78;;
51686;SDS011;37774;52.192;4.584;2022-12-05T14:09:51;12.38;;;4.63;;
51686;SDS011;37774;52.192;4.584;2022-12-05T14:15:21;14.35;;;5.22;;
51686;SDS011;37774;52.192;4.584;2022-12-05T14:17:48;12.25;;;4.90;;
51686;SDS011;37774;52.192;4.584;2022-12-05T14:20:18;12.90;;;4.63;;
51686;SDS011;37774;52.192;4.584;2022-12-05T14:22:49;10.77;;;4.60;;
51686;SDS011;37774;52.192;4.584;2022-12-05T14:25:35;15.38;;;5.03;;
51686;SDS011;37774;52.192;4.584;2022-12-05T14:28:09;12.30;;;4.78;;
51686;SDS011;37774;52.192;4.584;2022-12-05T14:30:41;18.73;;;5.53;;
51686;SDS011;37774;52.192;4.584;2022-12-05T14:33:12;20.90;;;6.43;;
51686;SDS011;37774;52.192;4.584;2022-12-05T14:35:40;12.98;;;5.15;;
51686;SDS011;37774;52.192;4.584;2022-12-05T14:38:15;15.10;;;3.95;;
51686;SDS011;37774;52.192;4.584;2022-12-05T14:40:46;13.95;;;4.00;;
51686;SDS011;37774;52.192;4.584;2022-12-05T14:43:16;18.55;;;4.47;;
51686;SDS011;37774;52.192;4.584;2022-12-05T14:45:44;13.48;;;4.80;;
51686;SDS011;37774;52.192;4.584;2022-12-05T14:48:25;14.25;;;4.57;;
51686;SDS011;37774;52.192;4.584;2022-12-05T14:50:53;13.77;;;5.15;;
51686;SDS011;37774;52.192;4.584;2022-12-05T14:53:25;13.63;;;4.90;;
51686;SDS011;37774;52.192;4.584;2022-12-05T14:55:56;15.52;;;5.45;;
51686;SDS011;37774;52.192;4.584;2022-12-05T14:58:27;10.25;;;4.63;;